Time;durP1;ratioP1;P1;durP2;ratioP2;P2;SDS_P1;SDS_P2;PMS_P1;PMS_P2;Temp;Humidity;BMP_temperature;BMP_pressure;BME280_temperature;BME280_humidity;BME280_pressure;Samples;Min_cycle;Max_cycle;Signal;HPM_P1;HPM_P2
2022/05/23 00:03:18;;;;;;;0.95;0.77;;;17.00;42.60;;;15.17;46.42;101038.84;12243572;19;20021;-78
2022/05/23 00:07:35;;;;;;;1.55;0.90;;;17.10;42.80;;;15.08;46.58;101029.00;12246620;19;20015;-78
2022/05/23 00:11:37;;;;;;;1.05;0.90;;;17.10;43.30;;;15.09;46.40;101035.91;12244008;19;20018;-78
2022/05/23 00:15:39;;;;;;;0.85;0.82;;;17.10;42.70;;;15.00;46.49;101037.41;12240655;19;20014;-78
2022/05/23 00:19:41;;;;;;;0.80;0.75;;;17.10;42.70;;;14.76;46.57;101003.94;12241863;19;20017;-78
2022/05/23 00:23:45;;;;;;;0.80;0.80;;;17.10;42.90;;;14.77;46.65;101008.28;12242804;19;20014;-78
2022/05/23 00:27:47;;;;;;;1.50;0.98;;;16.80;42.60;;;14.89;46.62;101035.50;12242603;19;20642;-78
2022/05/23 00:36:12;;;;;;;0.75;0.75;;;16.80;42.70;;;14.76;46.72;101039.91;12239972;19;20022;-78
2022/05/23 00:40:38;;;;;;;1.55;0.90;;;16.80;42.80;;;14.70;46.98;101032.44;12243966;19;20078;-78
2022/05/23 00:44:41;;;;;;;;;;;16.80;43.20;;;14.58;46.25;101013.94;12239967;19;20018;-78
2022/05/23 00:48:42;;;;;;;0.45;0.45;;;16.80;42.40;;;14.54;46.74;101014.25;12242267;19;20291;-77
2022/05/23 00:52:56;;;;;;;1.73;0.70;;;16.70;42.70;;;14.51;47.08;101023.13;12239832;19;20531;-78
2022/05/23 00:56:58;;;;;;;0.98;0.98;;;16.50;43.10;;;14.30;46.93;101017.53;12242076;19;20006;-78
2022/05/23 01:01:05;;;;;;;0.80;0.80;;;16.60;42.80;;;13.92;47.20;100952.59;12241197;19;20021;-77
2022/05/23 01:05:09;;;;;;;0.90;0.90;;;16.30;42.90;;;14.26;47.10;101005.53;12239430;19;20084;-78
2022/05/23 01:09:11;;;;;;;0.60;0.60;;;16.50;43.10;;;14.00;47.35;100974.91;12242571;19;20015;-78
2022/05/23 01:13:14;;;;;;;2.53;1.20;;;16.10;42.90;;;14.13;47.41;101002.88;12236616;19;20025;-78
2022/05/23 01:17:20;;;;;;;1.15;0.90;;;16.10;43.00;;;14.06;47.34;100993.72;12237487;19;20081;-78
2022/05/23 01:21:57;;;;;;;0.75;0.70;;;16.10;43.20;;;14.03;47.73;100985.19;12239676;19;20045;-78
2022/05/23 01:26:03;;;;;;;1.52;0.88;;;16.20;43.50;;;13.78;47.34;100957.09;12240158;19;20022;-78
2022/05/23 01:30:22;;;;;;;0.80;0.80;;;16.10;43.20;;;13.73;47.41;100960.84;12241245;19;20025;-78
2022/05/23 01:34:43;;;;;;;0.75;0.70;;;16.00;43.70;;;13.71;47.59;100967.13;12224310;19;20622;-77
2022/05/23 01:38:47;;;;;;;0.77;0.63;;;15.90;43.40;;;13.72;47.43;100966.19;12238879;19;20038;-77
2022/05/23 01:42:58;;;;;;;1.08;0.98;;;15.90;43.40;;;13.41;47.81;100934.03;12236921;19;20011;-77
2022/05/23 01:47:10;;;;;;;1.63;0.77;;;15.90;43.50;;;13.56;48.09;100955.84;12238449;19;20495;-78
2022/05/23 01:51:22;;;;;;;0.80;0.80;;;15.60;43.70;;;13.54;47.88;100956.88;12238795;19;20382;-79
2022/05/23 01:55:25;;;;;;;2.67;1.05;;;15.70;43.70;;;13.61;47.84;100964.25;12233979;19;20021;-78
2022/05/23 02:03:59;;;;;;;1.33;0.80;;;15.60;43.90;;;13.53;47.89;100944.69;12235983;19;20019;-78
2022/05/23 02:08:08;;;;;;;0.95;0.90;;;15.60;43.90;;;13.43;48.09;100934.78;12238398;19;20479;-77
2022/05/23 02:12:12;;;;;;;1.00;0.95;;;15.60;43.90;;;13.28;48.06;100922.63;12238075;19;20432;-78
2022/05/23 02:16:23;;;;;;;1.75;1.30;;;15.50;43.90;;;13.41;48.36;100951.56;12236343;19;20027;-78
2022/05/23 02:20:29;;;;;;;0.90;0.90;;;15.50;44.20;;;13.25;48.17;100941.16;12239735;19;20460;-78
2022/05/23 02:24:31;;;;;;;1.80;0.98;;;15.50;44.40;;;13.26;48.33;100942.91;12236049;19;20468;-77
2022/05/23 02:28:33;;;;;;;1.00;1.00;;;15.40;44.20;;;13.17;48.46;100925.91;12248895;19;20374;-77
2022/05/23 02:32:35;;;;;;;1.23;1.00;;;15.60;44.30;;;13.17;48.44;100936.41;12247755;19;20476;-77
2022/05/23 02:36:44;;;;;;;0.80;0.68;;;15.20;44.20;;;13.17;48.56;100941.63;12244186;19;20010;-77
2022/05/23 02:40:48;;;;;;;1.15;1.10;;;15.40;44.40;;;13.08;48.40;100929.13;12245749;19;20007;-77
2022/05/23 02:44:50;;;;;;;3.40;1.13;;;15.30;44.30;;;13.04;48.60;100925.84;12245407;19;20009;-77
2022/05/23 02:48:57;;;;;;;1.50;1.20;;;15.30;44.40;;;13.01;48.66;100919.94;12247185;19;20431;-78
2022/05/23 02:52:59;;;;;;;1.40;1.30;;;15.20;44.40;;;13.11;48.58;100944.66;12249096;19;20099;-77
2022/05/23 02:57:13;;;;;;;1.15;1.00;;;15.20;44.40;;;13.02;48.64;100932.97;12247105;19;20014;-78
2022/05/23 03:01:15;;;;;;;1.05;1.05;;;15.10;44.40;;;12.92;48.77;100920.53;12248975;19;20082;-78
2022/05/23 03:05:17;;;;;;;1.20;1.02;;;15.20;44.50;;;12.96;48.67;100949.09;12242179;19;20022;-78
2022/05/23 03:09:20;;;;;;;1.60;0.95;;;15.10;44.50;;;12.89;48.77;100932.03;12248570;19;20026;-78
2022/05/23 03:13:23;;;;;;;0.73;0.73;;;15.10;44.60;;;12.90;48.93;100928.47;12242235;19;20011;-77
2022/05/23 03:17:25;;;;;;;2.13;1.30;;;15.10;44.60;;;12.82;48.86;100928.09;12243830;19;20423;-77
2022/05/23 03:30:11;;;;;;;1.75;1.50;;;15.00;44.70;;;12.66;48.93;100912.47;12245807;19;20049;-77
2022/05/23 03:34:23;;;;;;;2.22;1.33;;;15.00;44.80;;;12.72;49.07;100919.09;12239403;19;20378;-77
2022/05/23 03:38:27;;;;;;;1.35;1.25;;;15.00;44.80;;;12.89;49.15;100945.13;12242002;19;20703;-77
2022/05/23 03:42:30;;;;;;;1.30;1.20;;;15.00;44.80;;;12.88;49.17;100950.47;12242271;19;20082;-77
2022/05/23 03:46:36;;;;;;;1.45;1.35;;;15.00;44.90;;;12.82;49.20;100942.03;12244352;19;20015;-77
2022/05/23 03:50:38;;;;;;;1.40;1.30;;;15.00;44.90;;;12.49;49.34;100884.69;12243535;19;20511;-77
2022/05/23 03:54:41;;;;;;;1.60;1.42;;;15.00;45.00;;;12.83;49.29;100941.13;12241908;19;20014;-77
2022/05/23 03:58:43;;;;;;;1.48;1.38;;;15.00;44.90;;;12.44;49.42;100880.66;12242127;19;20038;-77
2022/05/23 04:02:55;;;;;;;1.88;1.35;;;14.90;45.00;;;12.76;49.50;100939.81;12243013;19;20014;-77
2022/05/23 04:07:03;;;;;;;1.23;1.13;;;14.90;45.10;;;12.70;49.76;100931.47;12243305;19;20023;-77
2022/05/23 04:11:12;;;;;;;1.10;1.02;;;14.90;45.40;;;12.73;49.50;100945.22;12244553;19;20023;-77
2022/05/23 04:15:14;;;;;;;1.60;1.17;;;14.90;45.20;;;12.50;49.71;100915.19;12241671;19;20086;-77
2022/05/23 04:19:17;;;;;;;1.40;1.30;;;14.90;45.30;;;12.56;49.80;100912.19;12243321;19;20018;-77
2022/05/23 04:23:39;;;;;;;1.50;1.38;;;14.90;45.50;;;12.57;49.82;100918.28;12240002;19;20018;-77
2022/05/23 04:27:41;;;;;;;1.95;1.40;;;14.80;45.60;;;12.78;49.77;100948.41;12242343;19;20133;-77
2022/05/23 04:31:43;;;;;;;4.20;1.90;;;14.90;45.70;;;12.78;50.01;100948.41;12241135;19;20010;-77
2022/05/23 04:35:58;;;;;;;2.40;1.70;;;14.90;46.00;;;12.42;50.07;100885.13;12239506;19;20417;-77
2022/05/23 04:40:08;;;;;;;2.20;1.60;;;14.90;46.20;;;12.76;49.92;100937.19;12241648;19;20015;-77
2022/05/23 04:44:11;;;;;;;1.60;1.50;;;14.90;46.40;;;12.84;50.19;100936.72;12240509;19;20023;-78
2022/05/23 04:52:32;;;;;;;1.35;1.23;;;14.90;46.60;;;13.07;50.48;100938.75;12239683;19;20464;-77
2022/05/23 04:56:34;;;;;;;4.65;1.98;;;15.00;47.00;;;13.18;50.52;100940.72;12238134;19;20010;-77
2022/05/23 05:00:42;;;;;;;1.50;1.40;;;15.20;47.30;;;13.34;50.68;100934.53;12240623;19;20018;-77
2022/05/23 05:04:44;;;;;;;1.70;1.50;;;15.30;47.70;;;13.55;50.70;100925.28;12240157;19;20487;-77
2022/05/23 05:08:46;;;;;;;2.40;1.90;;;15.40;47.70;;;13.60;50.61;100896.13;12238562;19;20083;-77
2022/05/23 05:12:48;;;;;;;2.20;1.85;;;15.60;47.80;;;13.74;50.66;100888.19;12237023;19;20010;-77
2022/05/23 05:16:54;;;;;;;4.68;2.15;;;15.60;47.70;;;13.89;50.68;100884.56;12242157;19;20007;-77
2022/05/23 05:21:03;;;;;;;3.42;1.90;;;15.90;47.80;;;14.16;50.93;100900.25;12239139;19;20007;-77
2022/05/23 05:25:31;;;;;;;2.03;1.73;;;16.00;47.80;;;14.42;50.75;100892.38;12235067;19;20685;-77
2022/05/23 05:29:39;;;;;;;2.63;2.05;;;16.20;47.70;;;14.47;50.75;100874.50;12238875;19;20363;-77
2022/05/23 05:33:47;;;;;;;2.22;1.77;;;16.40;47.60;;;14.68;50.78;100874.81;12236991;19;20007;-77
2022/05/23 05:38:28;;;;;;;2.63;1.63;;;16.60;47.70;;;15.02;50.75;100875.09;12238190;19;20065;-77
2022/05/23 05:42:36;;;;;;;1.90;1.40;;;16.70;47.90;;;15.17;50.75;100865.22;12232297;19;20023;-77
2022/05/23 05:46:42;;;;;;;1.98;1.58;;;17.00;47.90;;;15.52;50.78;100881.09;12237556;19;20032;-76
2022/05/23 05:50:56;;;;;;;2.65;1.50;;;17.20;47.70;;;15.64;50.54;100860.94;12235832;19;20021;-77
2022/05/23 05:55:05;;;;;;;1.60;1.27;;;17.40;47.30;;;16.04;50.48;100882.50;12234154;19;20345;-78
2022/05/23 05:59:07;;;;;;;1.30;1.15;;;17.60;47.20;;;16.18;50.28;100852.47;12234207;19;20558;-78
2022/05/23 06:03:16;;;;;;;2.85;1.80;;;17.90;46.90;;;16.53;50.06;100880.53;12245739;19;20472;-78
2022/05/23 06:12:13;;;;;;;1.80;1.50;;;18.40;46.50;;;16.76;49.81;100829.44;12246153;19;20082;-78
2022/05/23 06:16:18;;;;;;;1.73;1.23;;;18.30;46.20;;;17.11;49.86;100833.72;12241188;19;20134;-78
2022/05/23 06:20:28;;;;;;;2.17;1.35;;;18.70;46.20;;;17.35;49.76;100846.72;12247073;19;20027;-78
2022/05/23 06:24:30;;;;;;;1.85;1.35;;;19.00;45.70;;;17.52;49.42;100840.06;12242499;19;20022;-78
2022/05/23 06:28:40;;;;;;;1.67;1.58;;;19.20;45.70;;;17.40;49.26;100789.13;12247327;19;20022;-76
2022/05/23 06:32:42;;;;;;;3.63;1.48;;;19.40;45.50;;;17.65;49.26;100808.19;12246483;19;20021;-77
2022/05/23 06:36:45;;;;;;;1.50;1.42;;;19.40;45.30;;;17.87;49.45;100825.75;12243145;19;20019;-76
2022/05/23 06:40:50;;;;;;;2.03;1.45;;;19.70;45.20;;;17.94;49.19;100815.50;12248709;19;20484;-77
2022/05/23 06:45:11;;;;;;;2.03;1.55;;;19.70;44.80;;;18.05;49.00;100821.56;12246273;19;20019;-79
2022/05/23 06:49:33;;;;;;;2.13;1.42;;;19.90;45.00;;;18.24;48.89;100817.34;12244367;19;20483;-77
2022/05/23 06:53:55;;;;;;;1.35;1.25;;;20.20;44.60;;;18.38;48.71;100805.56;12242605;19;20002;-77
2022/05/23 06:58:01;;;;;;;2.05;1.33;;;20.10;44.50;;;18.50;48.84;100801.88;12246422;19;20018;-76
2022/05/23 07:02:07;;;;;;;1.42;1.30;;;20.20;44.40;;;18.31;48.71;100761.16;12244092;19;20014;-76
2022/05/23 07:15:09;;;;;;;2.65;1.20;;;20.60;43.80;;;19.11;48.09;100788.50;12243074;19;20011;-77
2022/05/23 07:19:16;;;;;;;3.45;1.27;;;20.90;43.80;;;19.37;47.88;100790.59;12244922;19;20015;-76
2022/05/23 07:23:32;;;;;;;1.33;1.23;;;21.00;43.60;;;19.60;47.96;100788.47;12244387;19;20014;-77
2022/05/23 07:27:43;;;;;;;1.48;1.17;;;21.20;43.10;;;19.65;47.25;100771.16;12244647;19;20011;-77
2022/05/23 07:31:45;;;;;;;1.27;1.13;;;21.40;42.80;;;19.85;47.20;100787.91;12242927;19;20030;-77
2022/05/23 07:35:54;;;;;;;2.13;1.33;;;21.50;42.50;;;19.93;46.82;100773.09;12242732;19;20019;-77
2022/05/23 07:39:56;;;;;;;1.00;1.00;;;21.70;42.00;;;20.07;46.93;100764.69;12244282;19;20026;-77
2022/05/23 07:44:11;;;;;;;1.65;1.33;;;21.90;42.00;;;20.15;46.64;100758.66;12221582;19;20022;-77
2022/05/23 07:48:12;;;;;;;0.90;0.90;;;22.00;41.70;;;20.28;46.45;100749.38;12226730;19;20054;-77
2022/05/23 07:52:18;;;;;;;0.95;0.90;;;22.00;41.50;;;20.45;46.14;100745.09;12227271;19;20018;-77
2022/05/23 08:00:44;;;;;;;1.25;0.93;;;22.30;41.50;;;20.73;46.18;100729.16;12229414;19;20014;-77
2022/05/23 08:04:52;;;;;;;1.60;1.02;;;22.50;41.20;;;20.91;45.92;100722.03;12226581;19;20021;-77
2022/05/23 08:08:53;;;;;;;4.47;1.20;;;22.60;40.90;;;21.02;45.60;100718.31;12227694;19;20091;-79
2022/05/23 08:12:58;;;;;;;1.98;0.85;;;22.50;40.60;;;21.09;45.37;100723.84;12228421;19;20310;-76
2022/05/23 08:17:00;;;;;;;2.15;1.20;;;22.80;40.40;;;21.12;45.44;100723.56;12227324;19;20047;-78
2022/05/23 08:21:22;;;;;;;1.42;0.90;;;22.90;40.20;;;21.21;45.22;100733.25;12227783;19;20031;-78
2022/05/23 08:25:26;;;;;;;2.78;1.10;;;23.00;40.00;;;21.33;44.56;100715.25;12223297;19;20021;-77
2022/05/23 08:29:31;;;;;;;1.45;0.88;;;23.00;40.00;;;21.50;44.81;100705.63;12227219;19;20019;-77
2022/05/23 08:33:40;;;;;;;1.05;1.02;;;23.20;40.00;;;21.71;44.92;100714.06;12225779;19;20039;-78
2022/05/23 08:37:55;;;;;;;1.98;1.20;;;23.30;39.90;;;21.83;44.63;100706.63;12225710;19;20052;-77
2022/05/23 08:42:37;;;;;;;1.45;1.17;;;23.40;39.70;;;21.98;44.40;100704.19;12226481;19;20583;-77
2022/05/23 08:47:03;;;;;;;1.25;0.88;;;23.60;39.50;;;22.10;44.36;100713.56;12225227;19;20022;-77
2022/05/23 08:51:22;;;;;;;1.90;1.25;;;23.70;39.50;;;22.21;43.96;100707.16;12227514;19;20018;-78
2022/05/23 08:55:55;;;;;;;2.63;1.00;;;23.80;39.40;;;22.32;43.54;100682.91;12222774;19;20504;-78
2022/05/23 09:00:28;;;;;;;0.88;0.88;;;23.90;38.90;;;22.50;43.62;100678.28;12229102;19;20021;-78
2022/05/23 09:04:49;;;;;;;4.13;1.00;;;24.10;39.00;;;22.79;43.21;100687.66;12223133;19;20022;-78
2022/05/23 09:09:04;;;;;;;2.45;0.80;;;24.30;38.70;;;22.83;42.92;100675.66;12226225;19;20535;-78
2022/05/23 09:13:15;;;;;;;1.75;1.10;;;24.50;38.80;;;22.87;43.17;100687.66;12223775;19;20019;-78
2022/05/23 09:17:25;;;;;;;3.88;0.80;;;24.50;37.90;;;22.79;42.55;100666.34;12224309;19;20035;-78
2022/05/23 09:22:12;;;;;;;0.75;0.75;;;24.50;37.90;;;22.87;42.46;100669.03;12224524;19;20085;-78
2022/05/23 09:25:53;;;;;;;0.65;0.65;;;24.60;37.30;;;22.90;42.05;100644.72;12232949;19;20466;-78
2022/05/23 09:29:58;;;;;;;2.08;0.70;;;24.80;37.00;;;22.72;41.71;100599.63;12238500;19;20018;-78
2022/05/23 09:34:00;;;;;;;1.13;0.90;;;24.60;37.10;;;22.89;42.00;100608.41;12238569;19;20700;-77
2022/05/23 09:38:25;;;;;;;0.65;0.60;;;24.70;37.00;;;23.23;41.42;100636.72;12249655;19;20010;-79
2022/05/23 09:51:19;;;;;;;2.15;0.60;;;25.00;36.20;;;23.10;40.78;100599.94;12252807;19;20023;-77
2022/05/23 09:55:31;;;;;;;2.08;0.70;;;24.90;36.10;;;23.25;40.59;100621.41;12243958;19;20014;-78
2022/05/23 09:59:36;;;;;;;2.03;0.90;;;25.00;36.30;;;23.25;40.54;100596.56;12250463;19;20110;-78
2022/05/23 10:03:49;;;;;;;1.90;1.10;;;25.00;36.10;;;23.24;40.62;100579.75;12246307;19;20021;-79
2022/05/23 10:08:00;;;;;;;1.10;0.90;;;25.10;36.10;;;23.42;40.63;100604.34;12245680;19;20024;-78
2022/05/23 10:12:07;;;;;;;0.98;0.90;;;25.10;36.20;;;23.44;40.21;100593.53;12246102;19;20039;-79
2022/05/23 10:16:09;;;;;;;1.45;0.80;;;25.10;35.70;;;23.53;40.48;100594.31;12237063;19;20791;-78
2022/05/23 10:20:40;;;;;;;1.13;0.98;;;25.20;36.00;;;23.49;39.67;100590.34;12242361;19;20484;-77
2022/05/23 10:25:05;;;;;;;1.30;0.70;;;25.20;35.10;;;23.42;40.00;100575.03;12239750;19;20021;-78
2022/05/23 10:29:43;;;;;;;0.70;0.70;;;25.20;35.50;;;23.61;40.36;100583.63;12244262;19;20018;-77
2022/05/23 10:33:51;;;;;;;1.52;1.00;;;25.20;35.80;;;23.61;39.80;100579.13;12247309;19;20296;-78
2022/05/23 10:42:07;;;;;;;1.58;0.90;;;25.30;35.50;;;23.73;39.95;100563.59;12248199;19;20084;-78
2022/05/23 10:42:39;;;;;;;1.15;0.90;;;25.40;35.90;;;23.75;39.54;100569.59;12249104;19;20039;-78
2022/05/23 10:46:46;;;;;;;1.25;0.88;;;25.40;35.40;;;23.69;39.71;100548.94;12245597;19;20010;-78
2022/05/23 10:51:16;;;;;;;1.23;1.00;;;25.40;35.30;;;23.71;39.44;100549.63;12238440;19;20638;-78
2022/05/23 10:55:33;;;;;;;0.77;0.77;;;25.40;35.10;;;23.76;39.31;100535.75;12242305;19;20089;-77
2022/05/23 11:00:15;;;;;;;1.10;0.90;;;25.40;35.60;;;23.78;39.00;100542.56;12244776;19;20026;-77
2022/05/23 11:05:03;;;;;;;0.95;0.90;;;25.50;35.10;;;23.83;38.77;100542.88;12245436;19;20030;-78
2022/05/23 11:09:49;;;;;;;1.08;0.85;;;25.50;34.60;;;23.80;38.69;100535.22;12247279;19;20042;-78
2022/05/23 11:14:03;;;;;;;1.05;1.00;;;25.50;35.10;;;23.87;38.78;100531.84;12244525;19;20013;-77
2022/05/23 11:18:15;;;;;;;1.00;0.90;;;25.50;35.00;;;23.87;38.92;100522.00;12241584;19;20011;-78
2022/05/23 11:22:36;;;;;;;3.78;1.05;;;25.50;34.90;;;23.81;38.84;100504.06;12245468;19;20006;-77
2022/05/23 11:26:45;;;;;;;2.83;1.13;;;25.50;34.80;;;23.80;38.94;100505.06;12245990;19;20011;-77
2022/05/23 11:35:31;;;;;;;0.73;0.73;;;25.50;34.90;;;23.90;38.69;100491.47;12240649;19;20070;-78
2022/05/23 11:40:06;;;;;;;1.00;0.90;;;25.40;34.90;;;23.95;38.34;100486.44;12243692;19;20026;-78
2022/05/23 11:44:50;;;;;;;2.05;1.10;;;25.60;34.90;;;24.01;38.55;100485.75;12242878;19;20010;-78
2022/05/23 11:49:00;;;;;;;0.80;0.80;;;25.60;34.80;;;23.95;38.13;100465.09;12241270;19;20031;-78
2022/05/23 11:53:23;;;;;;;1.25;0.95;;;25.60;34.70;;;24.03;38.27;100479.25;12242537;19;20022;-77
2022/05/23 11:57:42;;;;;;;1.00;0.90;;;25.70;34.90;;;24.17;38.32;100458.09;12240755;19;20014;-78
2022/05/23 12:02:06;;;;;;;1.10;1.00;;;25.70;34.90;;;24.34;37.99;100454.28;12242506;19;20645;-78
2022/05/23 12:06:28;;;;;;;1.80;1.35;;;25.90;34.90;;;24.31;38.08;100433.28;12239290;19;20483;-77
2022/05/23 12:10:36;;;;;;;2.70;0.98;;;25.90;34.60;;;24.29;37.88;100429.97;12237979;19;20022;-77
2022/05/23 12:14:38;;;;;;;2.60;0.90;;;25.90;34.40;;;24.28;37.89;100434.50;12236777;19;20035;-78
2022/05/23 12:18:39;;;;;;;1.13;0.93;;;26.00;34.50;;;24.31;37.82;100421.81;12238178;19;20082;-78
2022/05/23 12:23:28;;;;;;;0.77;0.77;;;25.90;34.50;;;24.39;37.49;100408.38;12237227;19;20014;-77
2022/05/23 12:27:44;;;;;;;1.38;1.02;;;25.90;34.40;;;24.54;37.47;100419.91;12233433;19;20014;-78
2022/05/23 12:32:05;;;;;;;2.70;0.90;;;26.00;34.10;;;24.64;37.30;100412.44;12238739;19;20476;-78
2022/05/23 12:36:11;;;;;;;1.63;0.90;;;26.10;34.50;;;24.72;37.27;100388.31;12235755;19;20022;-78
2022/05/23 12:40:36;;;;;;;0.90;0.90;;;26.20;34.50;;;24.80;36.87;100403.44;12231836;19;20025;-78
2022/05/23 12:45:04;;;;;;;0.77;0.70;;;26.30;34.10;;;24.70;36.44;100374.31;12223769;19;20014;-78
2022/05/23 12:49:35;;;;;;;1.08;0.82;;;26.50;34.00;;;24.70;36.76;100376.16;12230574;19;20018;-78
2022/05/23 12:54:04;;;;;;;0.90;0.90;;;26.30;33.90;;;24.85;36.54;100370.81;12233062;19;20638;-78
2022/05/23 12:58:25;;;;;;;1.38;1.10;;;26.40;34.60;;;24.78;36.82;100364.56;12235436;19;20014;-80
2022/05/23 13:02:59;;;;;;;0.98;0.80;;;26.40;34.40;;;24.79;36.81;100368.88;12230916;19;20471;-78
2022/05/23 13:07:12;;;;;;;0.82;0.82;;;26.40;34.40;;;24.79;36.36;100368.88;12234550;19;20026;-78
2022/05/23 13:11:44;;;;;;;1.17;0.85;;;26.50;33.80;;;24.81;36.39;100364.19;12221527;19;20017;-78
2022/05/23 13:15:46;;;;;;;0.68;0.68;;;26.40;33.60;;;24.83;36.76;100354.16;12217344;19;20637;-78
2022/05/23 13:24:10;;;;;;;3.90;0.98;;;26.40;33.60;;;24.87;36.50;100342.91;12217156;19;20015;-78
2022/05/23 13:28:15;;;;;;;1.23;0.93;;;26.50;33.50;;;24.84;36.17;100337.09;12222398;19;20015;-78
2022/05/23 13:32:18;;;;;;;1.00;0.90;;;26.50;33.70;;;24.94;36.37;100345.66;12218784;19;20367;-78
2022/05/23 13:36:20;;;;;;;1.25;0.90;;;26.40;33.70;;;24.92;36.03;100326.28;12216245;19;20007;-78
2022/05/23 13:40:29;;;;;;;1.23;0.90;;;26.50;33.60;;;25.08;36.04;100326.06;12219673;19;20018;-78
2022/05/23 13:44:32;;;;;;;2.00;1.00;;;26.60;33.50;;;25.32;36.14;100329.44;12217669;19;20036;-77
2022/05/23 13:49:08;;;;;;;0.80;0.63;;;26.70;33.70;;;25.36;36.07;100312.00;12215037;19;20074;-83
2022/05/23 13:53:22;;;;;;;1.67;0.95;;;26.90;33.80;;;25.48;35.32;100333.69;12214861;19;21138;-79
2022/05/23 13:57:31;;;;;;;2.67;0.98;;;26.90;33.30;;;25.45;35.39;100316.19;12215434;19;20011;-80
2022/05/23 14:01:42;;;;;;;1.05;0.82;;;27.00;33.00;;;25.53;35.41;100313.38;12219598;19;20018;-81
2022/05/23 14:05:49;;;;;;;0.95;0.80;;;27.10;33.30;;;25.50;35.39;100287.03;12216629;19;20443;-79
2022/05/23 14:09:57;;;;;;;0.80;0.80;;;27.20;33.30;;;25.66;35.37;100291.28;12216844;19;20014;-80
2022/05/23 14:14:22;;;;;;;0.65;0.50;;;27.00;33.20;;;25.92;35.18;100301.34;12200806;19;20022;-79
2022/05/23 14:18:32;;;;;;;0.83;0.80;;;27.30;33.30;;;25.98;35.00;100297.09;12218357;19;20100;-79
2022/05/23 14:22:34;;;;;;;1.83;1.08;;;27.40;33.00;;;26.07;34.87;100309.28;12220535;19;20015;-79
2022/05/23 14:26:38;;;;;;;7.73;1.10;;;27.30;32.70;;;26.10;34.52;100292.81;12227193;19;20021;-80
2022/05/23 14:30:46;;;;;;;2.20;1.23;;;27.50;32.70;;;26.08;34.29;100284.16;12230133;19;20062;-80
2022/05/23 14:34:47;;;;;;;1.08;0.98;;;27.30;32.40;;;26.17;34.21;100290.19;12226018;19;20018;-80
2022/05/23 14:38:56;;;;;;;1.08;0.70;;;27.60;32.60;;;26.11;34.34;100257.00;12227935;19;20031;-80
2022/05/23 14:42:58;;;;;;;0.93;0.88;;;27.60;32.60;;;26.20;34.11;100281.78;12219508;19;20086;-79
2022/05/23 14:47:15;;;;;;;1.63;1.00;;;27.70;32.40;;;26.18;33.89;100275.78;12222624;19;20094;-79
2022/05/23 14:51:34;;;;;;;1.25;0.90;;;27.70;32.40;;;25.98;33.82;100251.59;12228920;19;20422;-79
2022/05/23 14:55:45;;;;;;;1.67;1.05;;;27.70;32.00;;;26.01;33.42;100259.22;12223265;19;20022;-78
2022/05/23 15:04:23;;;;;;;1.85;1.10;;;27.60;32.20;;;25.90;33.75;100235.69;12226198;19;20015;-79
2022/05/23 15:08:25;;;;;;;1.88;1.13;;;27.50;32.10;;;25.98;33.79;100228.34;12227527;19;20100;-79
2022/05/23 15:12:27;;;;;;;1.15;0.90;;;27.50;32.20;;;26.09;33.91;100212.75;12227076;19;20030;-79
2022/05/23 15:16:36;;;;;;;1.33;0.90;;;27.60;32.40;;;26.13;33.49;100222.84;12218440;19;20770;-79
2022/05/23 15:20:38;;;;;;;0.80;0.80;;;27.60;32.20;;;26.03;33.77;100179.56;12224992;19;20094;-79
2022/05/23 15:24:39;;;;;;;2.25;1.08;;;27.70;32.30;;;26.22;33.66;100202.06;12222745;19;20014;-79
2022/05/23 15:28:49;;;;;;;1.17;1.05;;;27.70;32.10;;;26.10;33.83;100179.59;12222489;19;20022;-79
2022/05/23 15:32:52;;;;;;;1.00;0.80;;;27.70;32.30;;;26.34;33.76;100208.50;12218013;19;20618;-79
2022/05/23 15:36:54;;;;;;;3.28;1.60;;;27.80;32.20;;;26.28;33.25;100177.19;12217462;19;20035;-79
2022/05/23 15:40:56;;;;;;;0.70;0.70;;;27.80;32.10;;;26.19;33.57;100160.50;12224728;19;20017;-79
2022/05/23 15:44:59;;;;;;;1.00;0.93;;;27.80;32.00;;;26.19;33.32;100152.47;12216081;19;20031;-79
2022/05/23 15:49:00;;;;;;;1.90;1.20;;;27.90;31.90;;;26.35;33.37;100179.88;12217518;19;20049;-79
2022/05/23 15:53:02;;;;;;;1.33;0.95;;;27.90;32.00;;;26.31;33.33;100152.69;12218685;19;20022;-78
2022/05/23 15:57:05;;;;;;;0.70;0.70;;;27.90;31.80;;;26.32;32.94;100142.81;12218340;19;20022;-78
2022/05/23 16:01:15;;;;;;;3.30;1.00;;;27.90;31.90;;;26.21;32.84;100125.47;12220710;19;20026;-79
2022/05/23 16:05:17;;;;;;;4.72;1.20;;;27.90;31.80;;;26.39;33.21;100139.13;12223812;19;20022;-79
2022/05/23 16:09:19;;;;;;;1.45;1.27;;;27.80;31.80;;;26.35;33.37;100126.34;12225763;19;20114;-79
2022/05/23 16:13:20;;;;;;;1.63;0.90;;;27.90;31.90;;;26.31;33.11;100122.44;12230372;19;20077;-79
2022/05/23 16:17:25;;;;;;;1.95;1.10;;;27.90;32.00;;;26.32;33.09;100113.34;12223201;19;20022;-79
2022/05/23 16:21:29;;;;;;;1.38;1.02;;;27.90;32.00;;;26.03;33.28;100084.06;12227383;19;20022;-79
2022/05/23 16:25:31;;;;;;;1.13;0.83;;;27.80;32.10;;;26.03;33.23;100096.59;12223216;19;20697;-78
2022/05/23 16:29:38;;;;;;;2.17;0.88;;;27.80;32.00;;;25.93;33.58;100096.16;12223756;19;20101;-79
2022/05/23 16:38:01;;;;;;;2.17;1.17;;;27.40;31.80;;;25.72;33.12;100083.72;12225487;19;20014;-79
2022/05/23 16:42:04;;;;;;;3.55;1.13;;;27.40;31.80;;;25.69;33.66;100076.09;12226648;19;20495;-79
2022/05/23 16:46:06;;;;;;;1.30;0.82;;;27.40;31.90;;;25.57;33.47;100065.97;12224308;19;20356;-79
2022/05/23 16:50:08;;;;;;;2.20;1.00;;;27.30;32.00;;;25.35;33.62;100033.13;12219529;19;20043;-79
2022/05/23 16:54:13;;;;;;;1.00;0.82;;;27.20;31.90;;;25.51;33.35;100057.91;12224831;19;20011;-79
2022/05/23 16:58:15;;;;;;;0.73;0.73;;;27.00;32.10;;;25.13;33.37;99994.97;12224653;19;20492;-79
2022/05/23 17:02:19;;;;;;;1.77;1.00;;;27.10;32.10;;;25.32;33.47;100030.84;12225871;19;20022;-79
2022/05/23 17:06:21;;;;;;;1.70;1.00;;;27.10;32.10;;;25.35;33.63;100046.50;12224708;19;20010;-79
2022/05/23 17:10:23;;;;;;;1.50;1.33;;;27.00;32.10;;;25.09;33.41;99999.06;12224135;19;20539;-80
2022/05/23 17:14:25;;;;;;;1.33;0.98;;;26.70;32.00;;;25.23;33.46;100032.06;12222860;19;20175;-78
2022/05/23 17:18:28;;;;;;;1.75;1.20;;;26.90;32.10;;;24.97;33.71;99997.97;12211120;19;20085;-78
2022/05/23 17:22:29;;;;;;;0.93;0.90;;;27.00;32.10;;;25.08;33.63;100026.78;12221520;19;20503;-77
2022/05/23 17:26:31;;;;;;;1.50;0.90;;;26.80;32.50;;;24.83;33.69;99997.06;12221047;19;20043;-79
2022/05/23 17:30:33;;;;;;;2.47;1.50;;;26.70;32.30;;;24.75;33.96;100004.41;12225484;19;20026;-78
2022/05/23 17:34:36;;;;;;;2.47;0.90;;;26.60;32.50;;;24.70;33.97;100007.66;12222636;19;20029;-78
2022/05/23 17:38:39;;;;;;;2.03;1.10;;;26.80;32.50;;;24.67;33.93;100011.53;12223218;19;20101;-78
2022/05/23 17:42:41;;;;;;;1.23;1.13;;;26.40;32.30;;;24.45;34.00;99980.56;12217857;19;20059;-78
2022/05/23 17:46:43;;;;;;;1.25;1.00;;;26.30;32.30;;;24.62;33.91;100021.97;12218564;19;20476;-78
2022/05/23 17:50:44;;;;;;;1.55;1.45;;;26.20;32.40;;;24.46;34.07;99999.03;12223554;19;20086;-78
2022/05/23 17:54:46;;;;;;;1.35;1.10;;;26.20;32.50;;;24.51;33.85;100009.16;12221680;19;20041;-78
2022/05/23 17:58:48;;;;;;;1.45;1.35;;;26.10;32.60;;;24.50;34.05;100000.31;12233288;19;20022;-79
2022/05/23 18:02:55;;;;;;;1.48;0.98;;;26.10;32.60;;;24.39;33.76;99982.13;12230353;19;20509;-79
2022/05/23 18:06:57;;;;;;;1.13;0.98;;;26.10;32.50;;;24.26;34.22;99974.84;12233123;19;20014;-79
2022/05/23 18:10:58;;;;;;;2.25;1.02;;;26.00;32.60;;;24.15;34.19;99970.03;12234944;19;20011;-78
2022/05/23 18:19:21;;;;;;;2.85;1.42;;;25.90;32.60;;;24.03;34.36;99966.19;12231540;19;20022;-79
2022/05/23 18:23:23;;;;;;;2.55;0.90;;;25.90;32.70;;;23.70;34.05;99929.34;12231519;19;20015;-79